sensor_id;sensor_type;location;lat;lon;timestamp;P1;durP1;ratioP1;P2;durP2;ratioP2
78416;SDS011;67715;46.170;6.140;2023-02-21T00:02:05;8.30;;;5.45;;
78416;SDS011;67715;46.170;6.140;2023-02-21T00:04:49;10.95;;;6.65;;
78416;SDS011;67715;46.170;6.140;2023-02-21T00:07:33;9.77;;;5.80;;
78416;SDS011;67715;46.170;6.140;2023-02-21T00:10:17;9.48;;;5.63;;
78416;SDS011;67715;46.170;6.140;2023-02-21T00:13:01;7.95;;;5.13;;
78416;SDS011;67715;46.170;6.140;2023-02-21T00:15:45;10.30;;;5.53;;
78416;SDS011;67715;46.170;6.140;2023-02-21T00:18:35;9.82;;;5.50;;
78416;SDS011;67715;46.170;6.140;2023-02-21T00:21:20;9.57;;;5.80;;
78416;SDS011;67715;46.170;6.140;2023-02-21T00:24:03;11.15;;;5.82;;
78416;SDS011;67715;46.170;6.140;2023-02-21T00:26:47;7.68;;;5.40;;
78416;SDS011;67715;46.170;6.140;2023-02-21T00:29:31;8.52;;;5.95;;
78416;SDS011;67715;46.170;6.140;2023-02-21T00:32:15;8.80;;;4.90;;
78416;SDS011;67715;46.170;6.140;2023-02-21T00:34:59;8.38;;;5.15;;
78416;SDS011;67715;46.170;6.140;2023-02-21T00:37:43;8.85;;;5.40;;
78416;SDS011;67715;46.170;6.140;2023-02-21T00:40:27;7.60;;;5.38;;
78416;SDS011;67715;46.170;6.140;2023-02-21T00:43:11;9.63;;;5.85;;
78416;SDS011;67715;46.170;6.140;2023-02-21T00:45:55;11.15;;;6.10;;
78416;SDS011;67715;46.170;6.140;2023-02-21T00:48:39;9.77;;;5.95;;
78416;SDS011;67715;46.170;6.140;2023-02-21T00:51:23;11.68;;;5.22;;
78416;SDS011;67715;46.170;6.140;2023-02-21T00:54:07;8.50;;;5.03;;
78416;SDS011;67715;46.170;6.140;2023-02-21T00:56:50;9.75;;;5.60;;
78416;SDS011;67715;46.170;6.140;2023-02-21T00:59:34;8.00;;;5.32;;
78416;SDS011;67715;46.170;6.140;2023-02-21T01:02:18;10.18;;;4.80;;
78416;SDS011;67715;46.170;6.140;2023-02-21T01:05:03;8.45;;;5.15;;
78416;SDS011;67715;46.170;6.140;2023-02-21T01:07:47;8.38;;;4.90;;
78416;SDS011;67715;46.170;6.140;2023-02-21T01:10:31;7.20;;;3.90;;
78416;SDS011;67715;46.170;6.140;2023-02-21T01:13:15;7.00;;;4.10;;
78416;SDS011;67715;46.170;6.140;2023-02-21T01:15:59;7.57;;;4.55;;
78416;SDS011;67715;46.170;6.140;2023-02-21T01:18:43;7.25;;;4.22;;
78416;SDS011;67715;46.170;6.140;2023-02-21T01:21:26;8.80;;;4.43;;
78416;SDS011;67715;46.170;6.140;2023-02-21T01:24:12;9.30;;;6.93;;
78416;SDS011;67715;46.170;6.140;2023-02-21T01:26:57;9.00;;;6.25;;
78416;SDS011;67715;46.170;6.140;2023-02-21T01:29:41;10.35;;;5.65;;
78416;SDS011;67715;46.170;6.140;2023-02-21T01:32:25;9.07;;;5.47;;
78416;SDS011;67715;46.170;6.140;2023-02-21T01:35:09;8.05;;;5.78;;
78416;SDS011;67715;46.170;6.140;2023-02-21T01:37:53;9.63;;;5.32;;
78416;SDS011;67715;46.170;6.140;2023-02-21T01:40:37;8.63;;;5.68;;
78416;SDS011;67715;46.170;6.140;2023-02-21T01:43:23;12.02;;;6.45;;
78416;SDS011;67715;46.170;6.140;2023-02-21T01:46:12;9.82;;;6.57;;
78416;SDS011;67715;46.170;6.140;2023-02-21T01:51:45;9.15;;;5.22;;
78416;SDS011;67715;46.170;6.140;2023-02-21T01:54:30;10.25;;;5.82;;
78416;SDS011;67715;46.170;6.140;2023-02-21T01:57:16;9.45;;;5.70;;
78416;SDS011;67715;46.170;6.140;2023-02-21T02:00:02;9.68;;;5.15;;
78416;SDS011;67715;46.170;6.140;2023-02-21T02:03:04;9.60;;;5.47;;
78416;SDS011;67715;46.170;6.140;2023-02-21T02:05:51;11.80;;;6.13;;
78416;SDS011;67715;46.170;6.140;2023-02-21T02:08:38;8.98;;;5.30;;
78416;SDS011;67715;46.170;6.140;2023-02-21T02:11:25;17.65;;;6.30;;
78416;SDS011;67715;46.170;6.140;2023-02-21T02:22:51;9.13;;;5.50;;
78416;SDS011;67715;46.170;6.140;2023-02-21T02:31:35;10.65;;;5.90;;
78416;SDS011;67715;46.170;6.140;2023-02-21T02:36:56;10.00;;;5.28;;
78416;SDS011;67715;46.170;6.140;2023-02-21T02:39:30;7.97;;;5.55;;
78416;SDS011;67715;46.170;6.140;2023-02-21T02:44:41;7.80;;;5.10;;
78416;SDS011;67715;46.170;6.140;2023-02-21T02:47:13;8.73;;;5.68;;
78416;SDS011;67715;46.170;6.140;2023-02-21T02:49:43;9.60;;;5.93;;
78416;SDS011;67715;46.170;6.140;2023-02-21T02:52:09;9.02;;;5.43;;
78416;SDS011;67715;46.170;6.140;2023-02-21T02:54:34;9.55;;;5.90;;
78416;SDS011;67715;46.170;6.140;2023-02-21T02:57:00;11.60;;;5.47;;
78416;SDS011;67715;46.170;6.140;2023-02-21T02:59:27;8.70;;;5.72;;
78416;SDS011;67715;46.170;6.140;2023-02-21T03:04:58;12.27;;;5.50;;
78416;SDS011;67715;46.170;6.140;2023-02-21T03:07:38;9.80;;;6.47;;
78416;SDS011;67715;46.170;6.140;2023-02-21T03:10:12;9.88;;;4.93;;
78416;SDS011;67715;46.170;6.140;2023-02-21T03:15:48;9.45;;;5.63;;
78416;SDS011;67715;46.170;6.140;2023-02-21T03:18:19;8.48;;;5.30;;
78416;SDS011;67715;46.170;6.140;2023-02-21T03:20:56;9.70;;;5.10;;
78416;SDS011;67715;46.170;6.140;2023-02-21T03:23:23;8.90;;;5.22;;
78416;SDS011;67715;46.170;6.140;2023-02-21T03:25:51;10.50;;;5.57;;
78416;SDS011;67715;46.170;6.140;2023-02-21T03:28:17;8.85;;;4.93;;
78416;SDS011;67715;46.170;6.140;2023-02-21T03:30:44;9.48;;;5.40;;
78416;SDS011;67715;46.170;6.140;2023-02-21T03:33:09;9.95;;;5.35;;
78416;SDS011;67715;46.170;6.140;2023-02-21T03:35:35;6.83;;;5.07;;
78416;SDS011;67715;46.170;6.140;2023-02-21T03:38:00;11.07;;;5.85;;
78416;SDS011;67715;46.170;6.140;2023-02-21T03:40:27;8.47;;;5.27;;
78416;SDS011;67715;46.170;6.140;2023-02-21T03:42:54;9.38;;;4.68;;
78416;SDS011;67715;46.170;6.140;2023-02-21T03:45:21;10.80;;;5.10;;
78416;SDS011;67715;46.170;6.140;2023-02-21T03:47:46;10.38;;;5.30;;
78416;SDS011;67715;46.170;6.140;2023-02-21T03:50:12;8.80;;;4.80;;
78416;SDS011;67715;46.170;6.140;2023-02-21T03:52:37;8.15;;;4.70;;
78416;SDS011;67715;46.170;6.140;2023-02-21T03:55:02;11.17;;;5.67;;
78416;SDS011;67715;46.170;6.140;2023-02-21T03:57:28;9.85;;;4.47;;
78416;SDS011;67715;46.170;6.140;2023-02-21T03:59:54;8.77;;;5.17;;
78416;SDS011;67715;46.170;6.140;2023-02-21T04:02:19;9.52;;;6.45;;
78416;SDS011;67715;46.170;6.140;2023-02-21T04:04:45;7.30;;;4.57;;
78416;SDS011;67715;46.170;6.140;2023-02-21T04:07:12;6.28;;;4.10;;
78416;SDS011;67715;46.170;6.140;2023-02-21T04:09:39;9.73;;;4.57;;
78416;SDS011;67715;46.170;6.140;2023-02-21T04:12:04;10.25;;;4.53;;
78416;SDS011;67715;46.170;6.140;2023-02-21T04:14:30;7.28;;;4.30;;
78416;SDS011;67715;46.170;6.140;2023-02-21T04:16:55;7.93;;;4.27;;
78416;SDS011;67715;46.170;6.140;2023-02-21T04:19:20;8.27;;;4.57;;
78416;SDS011;67715;46.170;6.140;2023-02-21T04:21:46;8.43;;;5.50;;
78416;SDS011;67715;46.170;6.140;2023-02-21T04:24:11;7.23;;;4.30;;
78416;SDS011;67715;46.170;6.140;2023-02-21T04:26:36;7.68;;;4.75;;
78416;SDS011;67715;46.170;6.140;2023-02-21T04:29:02;6.40;;;4.63;;
78416;SDS011;67715;46.170;6.140;2023-02-21T04:31:27;7.85;;;4.57;;
78416;SDS011;67715;46.170;6.140;2023-02-21T04:33:53;9.13;;;5.23;;
78416;SDS011;67715;46.170;6.140;2023-02-21T04:36:18;8.93;;;4.90;;
78416;SDS011;67715;46.170;6.140;2023-02-21T04:38:43;8.30;;;5.27;;
78416;SDS011;67715;46.170;6.140;2023-02-21T04:41:09;8.97;;;5.30;;
78416;SDS011;67715;46.170;6.140;2023-02-21T04:43:34;9.67;;;4.77;;
78416;SDS011;67715;46.170;6.140;2023-02-21T04:45:59;7.43;;;5.00;;
78416;SDS011;67715;46.170;6.140;2023-02-21T04:48:25;7.77;;;5.23;;
78416;SDS011;67715;46.170;6.140;2023-02-21T04:50:50;9.70;;;5.53;;
78416;SDS011;67715;46.170;6.140;2023-02-21T04:53:15;7.63;;;4.77;;
78416;SDS011;67715;46.170;6.140;2023-02-21T04:55:40;8.17;;;5.07;;
78416;SDS011;67715;46.170;6.140;2023-02-21T04:58:06;7.28;;;4.97;;
78416;SDS011;67715;46.170;6.140;2023-02-21T05:00:31;9.80;;;4.87;;
78416;SDS011;67715;46.170;6.140;2023-02-21T05:02:56;8.80;;;5.03;;
78416;SDS011;67715;46.170;6.140;2023-02-21T05:05:22;9.50;;;4.60;;
78416;SDS011;67715;46.170;6.140;2023-02-21T05:07:47;7.77;;;5.13;;
78416;SDS011;67715;46.170;6.140;2023-02-21T05:10:13;9.70;;;4.70;;
78416;SDS011;67715;46.170;6.140;2023-02-21T05:12:39;7.53;;;4.30;;
78416;SDS011;67715;46.170;6.140;2023-02-21T05:15:05;7.47;;;4.00;;
78416;SDS011;67715;46.170;6.140;2023-02-21T05:17:31;8.05;;;4.13;;
78416;SDS011;67715;46.170;6.140;2023-02-21T05:19:56;10.50;;;4.70;;
78416;SDS011;67715;46.170;6.140;2023-02-21T05:22:22;9.70;;;5.10;;
78416;SDS011;67715;46.170;6.140;2023-02-21T05:24:47;7.87;;;4.47;;
78416;SDS011;67715;46.170;6.140;2023-02-21T05:27:16;8.10;;;5.20;;
78416;SDS011;67715;46.170;6.140;2023-02-21T05:29:47;8.55;;;4.82;;
78416;SDS011;67715;46.170;6.140;2023-02-21T05:32:15;9.07;;;4.47;;
78416;SDS011;67715;46.170;6.140;2023-02-21T05:34:41;10.27;;;5.22;;
78416;SDS011;67715;46.170;6.140;2023-02-21T05:37:09;9.30;;;6.00;;
78416;SDS011;67715;46.170;6.140;2023-02-21T05:39:34;7.88;;;5.35;;
78416;SDS011;67715;46.170;6.140;2023-02-21T05:42:01;8.40;;;4.72;;
78416;SDS011;67715;46.170;6.140;2023-02-21T05:44:26;10.43;;;5.60;;
78416;SDS011;67715;46.170;6.140;2023-02-21T05:46:52;9.90;;;4.90;;
78416;SDS011;67715;46.170;6.140;2023-02-21T05:49:17;8.07;;;4.43;;
78416;SDS011;67715;46.170;6.140;2023-02-21T05:51:42;7.80;;;4.73;;
78416;SDS011;67715;46.170;6.140;2023-02-21T05:54:09;11.15;;;4.93;;
78416;SDS011;67715;46.170;6.140;2023-02-21T05:56:39;8.27;;;4.80;;
78416;SDS011;67715;46.170;6.140;2023-02-21T05:59:06;13.20;;;4.88;;
78416;SDS011;67715;46.170;6.140;2023-02-21T06:01:32;9.00;;;4.68;;
78416;SDS011;67715;46.170;6.140;2023-02-21T06:03:58;10.50;;;5.38;;
78416;SDS011;67715;46.170;6.140;2023-02-21T06:06:23;9.80;;;5.90;;
78416;SDS011;67715;46.170;6.140;2023-02-21T06:08:49;8.32;;;5.55;;
78416;SDS011;67715;46.170;6.140;2023-02-21T06:11:20;12.73;;;6.40;;
78416;SDS011;67715;46.170;6.140;2023-02-21T06:13:49;9.05;;;5.82;;
78416;SDS011;67715;46.170;6.140;2023-02-21T06:16:15;9.10;;;5.78;;
78416;SDS011;67715;46.170;6.140;2023-02-21T06:18:40;10.53;;;5.27;;
78416;SDS011;67715;46.170;6.140;2023-02-21T06:21:05;10.50;;;5.77;;
78416;SDS011;67715;46.170;6.140;2023-02-21T06:23:31;10.60;;;6.00;;
78416;SDS011;67715;46.170;6.140;2023-02-21T06:28:26;9.43;;;5.07;;
78416;SDS011;67715;46.170;6.140;2023-02-21T06:30:52;13.20;;;5.70;;
78416;SDS011;67715;46.170;6.140;2023-02-21T06:33:17;11.03;;;5.10;;
78416;SDS011;67715;46.170;6.140;2023-02-21T06:35:42;10.67;;;5.27;;
78416;SDS011;67715;46.170;6.140;2023-02-21T06:38:08;9.53;;;5.20;;
78416;SDS011;67715;46.170;6.140;2023-02-21T06:40:33;9.43;;;5.03;;
78416;SDS011;67715;46.170;6.140;2023-02-21T06:45:24;9.80;;;5.17;;
78416;SDS011;67715;46.170;6.140;2023-02-21T06:47:49;8.70;;;5.83;;
78416;SDS011;67715;46.170;6.140;2023-02-21T06:50:14;10.50;;;5.93;;
78416;SDS011;67715;46.170;6.140;2023-02-21T06:52:40;10.32;;;5.78;;
78416;SDS011;67715;46.170;6.140;2023-02-21T06:55:05;9.43;;;6.17;;
78416;SDS011;67715;46.170;6.140;2023-02-21T06:57:31;12.00;;;6.00;;
78416;SDS011;67715;46.170;6.140;2023-02-21T06:59:56;13.77;;;5.90;;
78416;SDS011;67715;46.170;6.140;2023-02-21T07:02:22;10.77;;;5.57;;
78416;SDS011;67715;46.170;6.140;2023-02-21T07:04:47;15.55;;;6.38;;
78416;SDS011;67715;46.170;6.140;2023-02-21T07:07:13;12.47;;;7.10;;
78416;SDS011;67715;46.170;6.140;2023-02-21T07:09:38;14.63;;;7.70;;
78416;SDS011;67715;46.170;6.140;2023-02-21T07:12:04;12.60;;;7.50;;
78416;SDS011;67715;46.170;6.140;2023-02-21T07:14:29;11.85;;;6.80;;
78416;SDS011;67715;46.170;6.140;2023-02-21T07:16:55;13.13;;;6.93;;
78416;SDS011;67715;46.170;6.140;2023-02-21T07:19:20;12.93;;;7.53;;
78416;SDS011;67715;46.170;6.140;2023-02-21T07:21:45;10.98;;;5.75;;
78416;SDS011;67715;46.170;6.140;2023-02-21T07:24:13;13.82;;;8.48;;
78416;SDS011;67715;46.170;6.140;2023-02-21T07:26:38;13.00;;;7.13;;
78416;SDS011;67715;46.170;6.140;2023-02-21T07:29:04;11.20;;;7.50;;
78416;SDS011;67715;46.170;6.140;2023-02-21T07:31:30;11.77;;;8.20;;
78416;SDS011;67715;46.170;6.140;2023-02-21T07:33:55;12.70;;;8.73;;
78416;SDS011;67715;46.170;6.140;2023-02-21T07:36:20;12.87;;;8.50;;
78416;SDS011;67715;46.170;6.140;2023-02-21T07:38:47;10.00;;;7.00;;
78416;SDS011;67715;46.170;6.140;2023-02-21T07:41:12;15.15;;;7.57;;
78416;SDS011;67715;46.170;6.140;2023-02-21T07:43:38;11.55;;;6.65;;
78416;SDS011;67715;46.170;6.140;2023-02-21T07:46:03;17.07;;;6.97;;
78416;SDS011;67715;46.170;6.140;2023-02-21T07:48:34;19.23;;;7.65;;
78416;SDS011;67715;46.170;6.140;2023-02-21T07:50:59;11.83;;;7.57;;
78416;SDS011;67715;46.170;6.140;2023-02-21T07:53:24;14.40;;;7.23;;
78416;SDS011;67715;46.170;6.140;2023-02-21T07:55:49;14.37;;;8.50;;
78416;SDS011;67715;46.170;6.140;2023-02-21T07:58:15;13.27;;;7.63;;
78416;SDS011;67715;46.170;6.140;2023-02-21T08:00:40;17.43;;;8.73;;
78416;SDS011;67715;46.170;6.140;2023-02-21T08:03:06;29.57;;;10.67;;
78416;SDS011;67715;46.170;6.140;2023-02-21T08:05:31;17.30;;;8.80;;
78416;SDS011;67715;46.170;6.140;2023-02-21T08:07:57;21.27;;;8.15;;
78416;SDS011;67715;46.170;6.140;2023-02-21T08:10:23;21.33;;;9.13;;
78416;SDS011;67715;46.170;6.140;2023-02-21T08:12:50;16.40;;;8.50;;
78416;SDS011;67715;46.170;6.140;2023-02-21T08:15:16;16.60;;;8.95;;
78416;SDS011;67715;46.170;6.140;2023-02-21T08:17:41;16.73;;;8.30;;
78416;SDS011;67715;46.170;6.140;2023-02-21T08:20:07;25.38;;;9.65;;
78416;SDS011;67715;46.170;6.140;2023-02-21T08:22:33;28.48;;;9.35;;
78416;SDS011;67715;46.170;6.140;2023-02-21T08:24:58;16.57;;;9.70;;
78416;SDS011;67715;46.170;6.140;2023-02-21T08:27:23;17.20;;;8.70;;
78416;SDS011;67715;46.170;6.140;2023-02-21T08:29:49;21.50;;;10.10;;
78416;SDS011;67715;46.170;6.140;2023-02-21T08:32:15;26.65;;;10.77;;
78416;SDS011;67715;46.170;6.140;2023-02-21T08:34:43;23.25;;;11.40;;
78416;SDS011;67715;46.170;6.140;2023-02-21T08:37:09;18.52;;;9.43;;
78416;SDS011;67715;46.170;6.140;2023-02-21T08:39:43;19.20;;;11.13;;
78416;SDS011;67715;46.170;6.140;2023-02-21T08:42:10;20.92;;;10.82;;
78416;SDS011;67715;46.170;6.140;2023-02-21T08:44:35;22.30;;;11.05;;
78416;SDS011;67715;46.170;6.140;2023-02-21T08:47:01;22.97;;;10.83;;
78416;SDS011;67715;46.170;6.140;2023-02-21T08:49:26;19.57;;;10.80;;
78416;SDS011;67715;46.170;6.140;2023-02-21T08:51:51;18.47;;;10.20;;
78416;SDS011;67715;46.170;6.140;2023-02-21T08:54:18;15.60;;;9.13;;
78416;SDS011;67715;46.170;6.140;2023-02-21T08:56:44;19.42;;;9.65;;
78416;SDS011;67715;46.170;6.140;2023-02-21T08:59:09;15.47;;;10.07;;
78416;SDS011;67715;46.170;6.140;2023-02-21T09:01:35;20.63;;;10.60;;
78416;SDS011;67715;46.170;6.140;2023-02-21T09:04:00;14.87;;;10.03;;
78416;SDS011;67715;46.170;6.140;2023-02-21T09:06:27;16.05;;;9.65;;
78416;SDS011;67715;46.170;6.140;2023-02-21T09:08:52;22.98;;;9.95;;
78416;SDS011;67715;46.170;6.140;2023-02-21T09:11:17;15.95;;;10.15;;
78416;SDS011;67715;46.170;6.140;2023-02-21T09:13:43;14.35;;;9.07;;
78416;SDS011;67715;46.170;6.140;2023-02-21T09:16:08;18.03;;;10.13;;
78416;SDS011;67715;46.170;6.140;2023-02-21T09:18:33;17.75;;;9.70;;
78416;SDS011;67715;46.170;6.140;2023-02-21T09:20:59;15.50;;;9.80;;
78416;SDS011;67715;46.170;6.140;2023-02-21T09:23:26;18.23;;;9.43;;
78416;SDS011;67715;46.170;6.140;2023-02-21T09:25:52;18.33;;;9.68;;
78416;SDS011;67715;46.170;6.140;2023-02-21T09:28:18;16.15;;;9.77;;
78416;SDS011;67715;46.170;6.140;2023-02-21T09:30:43;21.58;;;10.57;;
78416;SDS011;67715;46.170;6.140;2023-02-21T09:33:09;19.38;;;10.32;;
78416;SDS011;67715;46.170;6.140;2023-02-21T09:35:35;23.15;;;11.85;;
78416;SDS011;67715;46.170;6.140;2023-02-21T09:38:00;24.52;;;12.10;;
78416;SDS011;67715;46.170;6.140;2023-02-21T09:40:39;27.45;;;12.13;;
78416;SDS011;67715;46.170;6.140;2023-02-21T09:43:13;18.50;;;10.93;;
78416;SDS011;67715;46.170;6.140;2023-02-21T09:45:40;22.92;;;10.80;;
78416;SDS011;67715;46.170;6.140;2023-02-21T09:48:14;22.40;;;12.18;;
78416;SDS011;67715;46.170;6.140;2023-02-21T09:50:48;21.90;;;11.95;;
78416;SDS011;67715;46.170;6.140;2023-02-21T09:53:18;24.98;;;12.50;;
78416;SDS011;67715;46.170;6.140;2023-02-21T09:55:47;15.85;;;10.93;;
78416;SDS011;67715;46.170;6.140;2023-02-21T09:58:16;26.48;;;12.68;;
78416;SDS011;67715;46.170;6.140;2023-02-21T10:00:42;24.88;;;12.77;;
78416;SDS011;67715;46.170;6.140;2023-02-21T10:03:22;17.87;;;12.10;;
78416;SDS011;67715;46.170;6.140;2023-02-21T10:08:49;19.40;;;12.38;;
78416;SDS011;67715;46.170;6.140;2023-02-21T10:11:27;19.38;;;11.77;;
78416;SDS011;67715;46.170;6.140;2023-02-21T10:14:05;22.58;;;13.48;;
78416;SDS011;67715;46.170;6.140;2023-02-21T10:16:45;21.48;;;11.50;;
78416;SDS011;67715;46.170;6.140;2023-02-21T10:19:30;18.40;;;12.40;;
78416;SDS011;67715;46.170;6.140;2023-02-21T10:22:00;23.50;;;11.70;;
78416;SDS011;67715;46.170;6.140;2023-02-21T10:24:28;21.90;;;12.07;;
78416;SDS011;67715;46.170;6.140;2023-02-21T10:29:48;17.85;;;11.88;;
78416;SDS011;67715;46.170;6.140;2023-02-21T10:32:29;23.17;;;12.07;;
78416;SDS011;67715;46.170;6.140;2023-02-21T10:34:55;16.88;;;12.05;;
78416;SDS011;67715;46.170;6.140;2023-02-21T10:40:04;22.75;;;11.20;;
78416;SDS011;67715;46.170;6.140;2023-02-21T10:42:42;19.25;;;11.07;;
78416;SDS011;67715;46.170;6.140;2023-02-21T10:45:08;20.48;;;11.15;;
78416;SDS011;67715;46.170;6.140;2023-02-21T10:53:06;17.75;;;9.27;;
78416;SDS011;67715;46.170;6.140;2023-02-21T10:55:32;20.45;;;10.63;;
78416;SDS011;67715;46.170;6.140;2023-02-21T10:57:58;19.10;;;9.77;;
78416;SDS011;67715;46.170;6.140;2023-02-21T11:00:33;15.18;;;9.60;;
78416;SDS011;67715;46.170;6.140;2023-02-21T11:03:13;15.70;;;9.65;;
78416;SDS011;67715;46.170;6.140;2023-02-21T11:05:49;14.43;;;9.75;;
78416;SDS011;67715;46.170;6.140;2023-02-21T11:08:15;17.98;;;10.20;;
78416;SDS011;67715;46.170;6.140;2023-02-21T11:10:59;14.70;;;9.18;;
78416;SDS011;67715;46.170;6.140;2023-02-21T11:13:25;18.45;;;10.73;;
78416;SDS011;67715;46.170;6.140;2023-02-21T11:16:06;17.30;;;9.73;;
78416;SDS011;67715;46.170;6.140;2023-02-21T11:18:35;28.08;;;11.07;;
78416;SDS011;67715;46.170;6.140;2023-02-21T11:21:16;22.47;;;10.57;;
78416;SDS011;67715;46.170;6.140;2023-02-21T11:23:44;18.42;;;9.90;;
78416;SDS011;67715;46.170;6.140;2023-02-21T11:26:11;15.10;;;10.90;;
78416;SDS011;67715;46.170;6.140;2023-02-21T11:28:38;16.70;;;11.18;;
78416;SDS011;67715;46.170;6.140;2023-02-21T11:31:17;19.40;;;10.88;;
78416;SDS011;67715;46.170;6.140;2023-02-21T11:33:49;16.88;;;10.60;;
78416;SDS011;67715;46.170;6.140;2023-02-21T11:36:18;21.38;;;10.75;;
78416;SDS011;67715;46.170;6.140;2023-02-21T11:38:58;15.77;;;10.60;;
78416;SDS011;67715;46.170;6.140;2023-02-21T11:43:55;16.17;;;10.60;;
78416;SDS011;67715;46.170;6.140;2023-02-21T11:51:31;13.80;;;9.43;;
78416;SDS011;67715;46.170;6.140;2023-02-21T11:54:07;13.80;;;9.73;;
78416;SDS011;67715;46.170;6.140;2023-02-21T11:56:34;11.95;;;8.55;;
78416;SDS011;67715;46.170;6.140;2023-02-21T11:59:15;11.70;;;8.63;;
78416;SDS011;67715;46.170;6.140;2023-02-21T12:01:58;11.25;;;7.45;;
78416;SDS011;67715;46.170;6.140;2023-02-21T12:27:13;13.73;;;7.95;;
78416;SDS011;67715;46.170;6.140;2023-02-21T12:48:35;14.13;;;9.00;;
78416;SDS011;67715;46.170;6.140;2023-02-21T12:51:07;14.70;;;8.25;;
78416;SDS011;67715;46.170;6.140;2023-02-21T12:56:36;14.80;;;8.75;;
78416;SDS011;67715;46.170;6.140;2023-02-21T13:01:37;11.52;;;7.75;;
78416;SDS011;67715;46.170;6.140;2023-02-21T13:07:17;20.48;;;8.63;;
78416;SDS011;67715;46.170;6.140;2023-02-21T13:09:37;19.08;;;9.48;;
78416;SDS011;67715;46.170;6.140;2023-02-21T13:12:15;13.50;;;8.55;;
78416;SDS011;67715;46.170;6.140;2023-02-21T13:17:14;15.27;;;8.48;;
78416;SDS011;67715;46.170;6.140;2023-02-21T13:19:53;12.38;;;8.00;;
78416;SDS011;67715;46.170;6.140;2023-02-21T13:28:28;15.98;;;8.13;;
78416;SDS011;67715;46.170;6.140;2023-02-21T13:30:58;12.13;;;7.43;;
78416;SDS011;67715;46.170;6.140;2023-02-21T13:33:35;12.15;;;7.13;;
78416;SDS011;67715;46.170;6.140;2023-02-21T13:36:13;10.80;;;7.45;;
78416;SDS011;67715;46.170;6.140;2023-02-21T13:38:56;10.15;;;6.60;;
78416;SDS011;67715;46.170;6.140;2023-02-21T13:41:24;9.68;;;6.97;;
78416;SDS011;67715;46.170;6.140;2023-02-21T13:43:52;10.90;;;7.10;;
78416;SDS011;67715;46.170;6.140;2023-02-21T13:57:33;11.45;;;7.18;;
78416;SDS011;67715;46.170;6.140;2023-02-21T14:00:43;10.52;;;7.03;;
78416;SDS011;67715;46.170;6.140;2023-02-21T14:03:01;16.13;;;8.05;;
78416;SDS011;67715;46.170;6.140;2023-02-21T14:08:14;9.70;;;6.85;;
78416;SDS011;67715;46.170;6.140;2023-02-21T14:11:43;9.07;;;6.10;;
78416;SDS011;67715;46.170;6.140;2023-02-21T14:13:48;10.07;;;7.13;;
78416;SDS011;67715;46.170;6.140;2023-02-21T14:16:29;12.07;;;7.60;;
78416;SDS011;67715;46.170;6.140;2023-02-21T14:21:42;9.88;;;6.30;;
78416;SDS011;67715;46.170;6.140;2023-02-21T14:24:26;7.72;;;6.03;;
78416;SDS011;67715;46.170;6.140;2023-02-21T14:26:54;8.82;;;5.80;;
78416;SDS011;67715;46.170;6.140;2023-02-21T14:29:38;12.77;;;7.07;;
78416;SDS011;67715;46.170;6.140;2023-02-21T14:45:40;11.20;;;5.93;;
78416;SDS011;67715;46.170;6.140;2023-02-21T14:51:48;9.98;;;4.22;;
78416;SDS011;67715;46.170;6.140;2023-02-21T14:54:37;7.95;;;3.92;;
78416;SDS011;67715;46.170;6.140;2023-02-21T15:00:32;9.05;;;4.72;;
78416;SDS011;67715;46.170;6.140;2023-02-21T15:03:24;9.45;;;4.72;;
78416;SDS011;67715;46.170;6.140;2023-02-21T15:05:55;9.00;;;4.15;;
78416;SDS011;67715;46.170;6.140;2023-02-21T15:08:27;13.20;;;4.57;;
78416;SDS011;67715;46.170;6.140;2023-02-21T15:10:55;8.63;;;4.00;;
78416;SDS011;67715;46.170;6.140;2023-02-21T15:13:30;9.73;;;4.43;;
78416;SDS011;67715;46.170;6.140;2023-02-21T15:15:59;8.55;;;4.80;;
78416;SDS011;67715;46.170;6.140;2023-02-21T15:18:26;9.38;;;4.07;;
78416;SDS011;67715;46.170;6.140;2023-02-21T15:23:39;8.50;;;4.03;;
78416;SDS011;67715;46.170;6.140;2023-02-21T15:26:23;8.48;;;4.53;;
78416;SDS011;67715;46.170;6.140;2023-02-21T15:29:04;8.27;;;4.20;;
78416;SDS011;67715;46.170;6.140;2023-02-21T15:31:35;9.55;;;4.57;;
78416;SDS011;67715;46.170;6.140;2023-02-21T15:34:03;13.15;;;5.75;;
78416;SDS011;67715;46.170;6.140;2023-02-21T15:36:29;9.43;;;4.50;;
78416;SDS011;67715;46.170;6.140;2023-02-21T15:41:43;10.48;;;4.45;;
78416;SDS011;67715;46.170;6.140;2023-02-21T15:44:17;9.93;;;4.28;;
78416;SDS011;67715;46.170;6.140;2023-02-21T15:46:47;11.48;;;4.53;;
78416;SDS011;67715;46.170;6.140;2023-02-21T15:49:20;8.60;;;4.75;;
78416;SDS011;67715;46.170;6.140;2023-02-21T15:51:48;9.23;;;4.38;;
78416;SDS011;67715;46.170;6.140;2023-02-21T15:56:42;9.93;;;5.00;;
78416;SDS011;67715;46.170;6.140;2023-02-21T15:59:10;8.85;;;4.40;;
78416;SDS011;67715;46.170;6.140;2023-02-21T16:01:43;14.45;;;5.38;;
78416;SDS011;67715;46.170;6.140;2023-02-21T16:04:16;10.38;;;4.88;;
78416;SDS011;67715;46.170;6.140;2023-02-21T16:06:48;11.55;;;4.72;;
78416;SDS011;67715;46.170;6.140;2023-02-21T16:09:19;9.35;;;4.55;;
78416;SDS011;67715;46.170;6.140;2023-02-21T16:14:31;8.60;;;4.90;;
78416;SDS011;67715;46.170;6.140;2023-02-21T16:17:06;8.93;;;4.15;;
78416;SDS011;67715;46.170;6.140;2023-02-21T16:19:33;12.73;;;4.78;;
78416;SDS011;67715;46.170;6.140;2023-02-21T16:22:10;9.05;;;5.00;;
78416;SDS011;67715;46.170;6.140;2023-02-21T16:24:37;12.77;;;5.68;;
78416;SDS011;67715;46.170;6.140;2023-02-21T16:27:13;10.23;;;5.15;;
78416;SDS011;67715;46.170;6.140;2023-02-21T16:29:40;11.80;;;5.13;;
78416;SDS011;67715;46.170;6.140;2023-02-21T16:32:08;11.18;;;5.88;;
78416;SDS011;67715;46.170;6.140;2023-02-21T16:34:40;14.90;;;7.05;;
78416;SDS011;67715;46.170;6.140;2023-02-21T16:37:07;12.50;;;7.43;;
78416;SDS011;67715;46.170;6.140;2023-02-21T16:39:35;11.25;;;7.60;;
78416;SDS011;67715;46.170;6.140;2023-02-21T16:42:00;12.10;;;7.43;;
78416;SDS011;67715;46.170;6.140;2023-02-21T16:44:26;12.87;;;6.27;;
78416;SDS011;67715;46.170;6.140;2023-02-21T16:46:51;9.50;;;5.77;;
78416;SDS011;67715;46.170;6.140;2023-02-21T16:49:17;12.40;;;7.50;;
78416;SDS011;67715;46.170;6.140;2023-02-21T16:51:42;13.17;;;7.70;;
78416;SDS011;67715;46.170;6.140;2023-02-21T16:54:08;10.93;;;7.40;;
78416;SDS011;67715;46.170;6.140;2023-02-21T16:56:37;11.82;;;7.30;;
78416;SDS011;67715;46.170;6.140;2023-02-21T16:59:04;15.07;;;8.15;;
78416;SDS011;67715;46.170;6.140;2023-02-21T17:01:32;13.93;;;7.35;;
78416;SDS011;67715;46.170;6.140;2023-02-21T17:03:58;13.90;;;7.75;;
78416;SDS011;67715;46.170;6.140;2023-02-21T17:06:25;12.07;;;7.60;;
78416;SDS011;67715;46.170;6.140;2023-02-21T17:08:51;12.35;;;7.43;;
78416;SDS011;67715;46.170;6.140;2023-02-21T17:11:17;24.85;;;12.95;;
78416;SDS011;67715;46.170;6.140;2023-02-21T17:13:42;25.42;;;12.48;;
78416;SDS011;67715;46.170;6.140;2023-02-21T17:16:08;15.37;;;7.67;;
78416;SDS011;67715;46.170;6.140;2023-02-21T17:18:33;11.90;;;8.00;;
78416;SDS011;67715;46.170;6.140;2023-02-21T17:20:59;11.88;;;7.25;;
78416;SDS011;67715;46.170;6.140;2023-02-21T17:23:24;16.90;;;8.70;;
78416;SDS011;67715;46.170;6.140;2023-02-21T17:25:50;13.95;;;8.35;;
78416;SDS011;67715;46.170;6.140;2023-02-21T17:28:15;17.87;;;7.80;;
78416;SDS011;67715;46.170;6.140;2023-02-21T17:30:41;14.60;;;8.52;;
78416;SDS011;67715;46.170;6.140;2023-02-21T17:33:06;14.87;;;8.30;;
78416;SDS011;67715;46.170;6.140;2023-02-21T17:35:33;14.88;;;8.73;;
78416;SDS011;67715;46.170;6.140;2023-02-21T17:37:58;16.40;;;10.27;;
78416;SDS011;67715;46.170;6.140;2023-02-21T17:40:26;18.70;;;9.63;;
78416;SDS011;67715;46.170;6.140;2023-02-21T17:42:52;17.08;;;9.60;;